Have a Safe July 4th! 

Flight Track Log - Related Links

Times and Time Zones

All times are in EDT time to prevent confusion due to time zone crossing. See the UAL1038 flight status page for this flight to view local times or setup timezone preferences in your user account.

Time Position Orientation Groundspeed Altitude Reporting Facility
EDT Latitude Longitude Course Direction KTS MPH feet Rate Location/Type
Wed 04:17:48 PM 33.8719 -118.5739 184° South 239 275 7,700  Level FlightAware ADS-B
Wed 04:18:00 PM 34.1939 -117.9455 59° Northeast  Level FlightAware Approximate
Wed 04:18:00 PM 33.8577 -118.5729 170° South 244 281 8,100  Level FlightAware ADS-B
Wed 04:18:04 PM 33.8525 -118.5708 150° Southeast 254 292 8,600 2,571 Climbing FlightAware ADS-B
Wed 04:18:28 PM 33.8315 -118.5442 113° Southeast 279 321 9,300 1,667 Climbing FlightAware ADS-B
Wed 04:18:40 PM 33.8286 -118.5259 92° East 296 341 9,600 2,250 Climbing FlightAware ADS-B
Wed 04:18:44 PM 33.8291 -118.5189 76° East 307 353 9,900 2,700 Climbing FlightAware ADS-B
Wed 04:19:20 PM 33.8592 -118.4757 50° Northeast 249 287 11,400 1,800 Climbing FlightAware ADS-B
Wed 04:20:04 PM 33.9219 -118.4363 34° Northeast 365 420 12,300 1,500 Climbing FlightAware ADS-B
Wed 04:20:16 PM 33.9395 -118.4180 45° Northeast 374 430 12,800 2,429 Climbing FlightAware ADS-B
Wed 04:20:46 PM 33.9701 -118.3675 55° Northeast 388 447 14,000 2,500 Climbing FlightAware ADS-B
Wed 04:21:16 PM 34.0009 -118.3128 55° Northeast 394 453 15,300 2,651 Climbing FlightAware ADS-B
Wed 04:21:29 PM 34.0119 -118.2932 56° Northeast 398 458 15,900 2,516 Climbing FlightAware ADS-B
Wed 04:21:47 PM 34.0326 -118.2567 55° Northeast 403 464 16,600 2,341 Climbing FlightAware ADS-B
Wed 04:22:10 PM 34.0574 -118.2128 56° Northeast 411 473 17,500 2,200 Climbing FlightAware ADS-B
Wed 04:22:17 PM 34.0647 -118.1997 56° Northeast 411 473 17,700 2,276 Climbing FlightAware ADS-B
Wed 04:22:39 PM 34.0890 -118.1567 55° Northeast 417 480 18,600 2,438 Climbing FlightAware ADS-B
Wed 04:22:49 PM 34.1003 -118.1369 55° Northeast 418 481 19,000 2,500 Climbing FlightAware ADS-B
Wed 04:23:15 PM 34.1283 -118.0879 55° Northeast 418 481 20,100 2,462 Climbing FlightAware ADS-B
Wed 04:23:28 PM 34.1432 -118.0617 56° Northeast 422 486 20,600 2,516 Climbing FlightAware ADS-B
Wed 04:23:46 PM 34.1630 -118.0266 55° Northeast 419 482 21,400 2,488 Climbing FlightAware ADS-B
Wed 04:24:09 PM 34.1865 -117.9850 56° Northeast 419 482 22,300 2,200 Climbing FlightAware ADS-B
Wed 04:24:16 PM 34.1855 -117.9868 55° Northeast 419 482 22,500 1,886 Climbing FlightAware ADS-B
Wed 04:24:44 PM 34.2259 -117.9149 55° Northeast 422 486 23,400 2,000 Climbing FlightAware ADS-B
Wed 04:24:46 PM 34.2280 -117.9112 56° Northeast 424 488 23,500 1,400 Climbing FlightAware ADS-B
Wed 04:25:14 PM 34.2547 -117.8636 53° Northeast 428 493 24,100 1,395 Climbing FlightAware ADS-B
Wed 04:25:29 PM 34.2772 -117.8300 50° Northeast 431 496 24,500 1,500 Climbing FlightAware ADS-B
Wed 04:25:50 PM 34.3063 -117.7887 53° Northeast 428 493 25,000 2,264 Climbing FlightAware ADS-B
Wed 04:26:22 PM 34.3427 -117.7369 50° Northeast 439 505 26,500 1,308 Climbing FlightAware ADS-B (KBNG)
Wed 04:27:08 PM 34.4046 -117.6482 50° Northeast 445 512 26,700 684 Climbing FlightAware ADS-B (KBNG)
Wed 04:27:41 PM 34.4508 -117.5824 50° Northeast 453 521 27,400 957 Climbing FlightAware ADS-B (KBNG)
Wed 04:28:17 PM 34.4836 -117.5350 50° Northeast 446 513 27,800 918 Climbing Los Angeles Center
Wed 04:29:19 PM 34.5822 -117.3903 50° Northeast 463 533 28,900 968 Climbing Los Angeles Center
Wed 04:31:23 PM 34.7489 -117.1475 50° Northeast 470 541 30,800 750 Climbing Los Angeles Center
Wed 04:33:27 PM 34.9239 -116.8936 49° Northeast 494 568 32,000 770 Climbing Los Angeles Center
Wed 04:34:30 PM 35.0303 -116.7369 50° Northeast 498 573 33,200 1,104 Climbing Los Angeles Center
Wed 04:35:32 PM 35.1164 -116.6089 51° Northeast 499 574 34,300 774 Climbing Los Angeles Center
Wed 04:36:34 PM 35.2019 -116.4814 51° Northeast 490 564 34,800 339 Climbing Los Angeles Center
Wed 04:37:36 PM 35.2897 -116.3528 50° Northeast 493 567 35,000 65 Climbing Los Angeles Center
Wed 04:39:40 PM 35.4800 -116.0678 51° Northeast 493 567 35,000  Level Los Angeles Center
Wed 04:40:43 PM 35.5678 -115.9403 50° Northeast 492 566 35,000  Level Los Angeles Center
Wed 04:44:51 PM 35.9222 -115.4014 70° East 484 557 35,000  Level Los Angeles Center
Wed 04:46:10 PM 36.0385 -115.2238 51° Northeast 490 564 35,000  Level FlightAware ADS-B
Wed 04:46:43 PM 36.0679 -115.1740 58° Northeast 489 563 35,000  Level FlightAware ADS-B
Wed 04:50:02 PM 36.2425 -114.6353 69° East 492 566 35,000  Level Los Angeles Center
Wed 04:51:53 PM 36.3382 -114.3294 69° East 497 572 35,000  Level FlightAware ADS-B (KBKF)
Wed 04:55:00 PM 36.4691 -113.8697 69° East  Level FlightAware Approximate
Wed 04:55:38 PM 36.5219 -113.7251 69° East 502 578 35,000  Level FlightAware ADS-B
Wed 04:56:44 PM 36.5767 -113.5483 69° East 504 580 35,000  Level FlightAware ADS-B
Wed 04:57:26 PM 36.6113 -113.4346 69° East 504 580 35,000  Level FlightAware ADS-B (KBKF)
Wed 04:58:34 PM 36.6673 -113.2490 70° East 502 578 35,000  Level FlightAware ADS-B (KBKF)
Wed 04:59:28 PM 36.7108 -113.1032 70° East 501 577 35,000  Level FlightAware ADS-B (KBKF)
Wed 05:00:14 PM 36.7478 -112.9790 70° East 498 573 35,000  Level FlightAware ADS-B (KBKF)
Wed 05:00:53 PM 36.7717 -112.8988 70° East 497 572 35,000  Level FlightAware ADS-B
Wed 05:01:53 PM 36.8260 -112.7143 70° East 495 570 35,000  Level FlightAware ADS-B
Wed 05:02:56 PM 36.8716 -112.5593 70° East 496 571 35,000  Level FlightAware ADS-B
Wed 05:04:01 PM 36.9252 -112.3762 70° East 495 570 35,000  Level FlightAware ADS-B
Wed 05:05:03 PM 36.9747 -112.2051 70° East 494 568 35,000  Level FlightAware ADS-B
Wed 05:08:08 PM 37.1161 -111.7122 71° East 495 570 35,000  Level FlightAware ADS-B
Wed 05:09:13 PM 37.1673 -111.5317 71° East 494 568 35,000  Level FlightAware ADS-B
Wed 05:10:16 PM 37.2152 -111.3613 71° East 495 570 35,000  Level FlightAware ADS-B
Wed 05:11:19 PM 37.2603 -111.2001 71° East 493 567 35,000  Level FlightAware ADS-B
Wed 05:12:21 PM 37.3063 -111.0342 71° East 494 568 35,000  Level FlightAware ADS-B
Wed 05:13:22 PM 37.3518 -110.8694 71° East 493 567 35,000  Level FlightAware ADS-B
Wed 05:14:25 PM 37.4012 -110.6897 71° East 495 570 35,000 -383 Level FlightAware ADS-B
Wed 05:16:30 PM 37.4934 -110.3509 71° East 491 565 33,800 -632 Descending FlightAware ADS-B
Wed 05:17:35 PM 37.5406 -110.1755 72° East 491 565 33,000 -375 Descending FlightAware ADS-B
Wed 05:18:38 PM 37.5861 -110.0049 72° East 491 565 33,000  Level FlightAware ADS-B
Wed 05:19:15 PM 37.6130 -109.9035 72° East 490 564 33,000  Level FlightAware ADS-B
Wed 05:19:52 PM 37.6382 -109.8086 72° East 490 564 33,000  Level FlightAware ADS-B
Wed 05:20:32 PM 37.6656 -109.7044 72° East 492 566 33,000  Level FlightAware ADS-B
Wed 05:21:11 PM 37.6952 -109.5919 72° East 492 566 33,000  Level FlightAware ADS-B
Wed 05:21:45 PM 37.7189 -109.5015 72° East 490 564 33,000  Level FlightAware ADS-B
Wed 05:22:21 PM 37.7453 -109.3999 72° East 489 563 33,000  Level FlightAware ADS-B
Wed 05:22:52 PM 37.7666 -109.3182 72° East 489 563 33,000  Level FlightAware ADS-B
Wed 05:23:27 PM 37.7859 -109.2442 72° East 490 564 33,000  Level FlightAware ADS-B
Wed 05:24:01 PM 37.8159 -109.1277 72° East 491 565 33,000  Level FlightAware ADS-B
Wed 05:25:19 PM 37.8694 -108.9183 72° East 485 558 33,000  Level FlightAware ADS-B
Wed 05:26:04 PM 37.9005 -108.7959 72° East 484 557 33,000  Level FlightAware ADS-B
Wed 05:26:37 PM 37.9196 -108.7209 72° East 482 555 33,000  Level FlightAware ADS-B
Wed 05:27:11 PM 37.9458 -108.6175 72° East 481 554 33,000  Level FlightAware ADS-B
Wed 05:27:52 PM 37.9709 -108.5176 72° East 481 554 33,000  Level FlightAware ADS-B
Wed 05:28:34 PM 38.0012 -108.3971 73° East 480 552 33,000  Level FlightAware ADS-B
Wed 05:29:06 PM 38.0214 -108.3156 73° East 480 552 33,000  Level FlightAware ADS-B
Wed 05:29:36 PM 38.0425 -108.2306 73° East 481 554 33,000  Level FlightAware ADS-B
Wed 05:30:15 PM 38.0683 -108.1268 73° East 486 559 33,000  Level FlightAware ADS-B
Wed 05:30:49 PM 38.0922 -108.0303 73° East 487 560 33,000  Level FlightAware ADS-B
Wed 05:31:23 PM 38.1145 -107.9398 73° East 485 558 33,000  Level FlightAware ADS-B
Wed 05:31:54 PM 38.1355 -107.8542 73° East 485 558 33,000  Level FlightAware ADS-B
Wed 05:32:32 PM 38.1610 -107.7500 73° East 491 565 33,000  Level FlightAware ADS-B
Wed 05:33:02 PM 38.1806 -107.6691 73° East 491 565 33,000  Level FlightAware ADS-B
Wed 05:33:35 PM 38.2019 -107.5803 73° East 491 565 33,000  Level FlightAware ADS-B
Wed 05:34:15 PM 38.2285 -107.4703 73° East 493 567 33,000  Level FlightAware ADS-B
Wed 05:34:46 PM 38.2503 -107.3804 73° East 494 568 33,000  Level FlightAware ADS-B
Wed 05:35:16 PM 38.2702 -107.2972 73° East 495 570 33,000  Level FlightAware ADS-B
Wed 05:35:48 PM 38.2915 -107.2077 73° East 497 572 33,000  Level FlightAware ADS-B
Wed 05:36:18 PM 38.3112 -107.1248 73° East 496 571 33,000  Level FlightAware ADS-B
Wed 05:36:50 PM 38.3325 -107.0345 73° East 494 568 33,000  Level FlightAware ADS-B
Wed 05:37:30 PM 38.3584 -106.9245 73° East 493 567 33,000  Level FlightAware ADS-B
Wed 05:38:02 PM 38.3796 -106.8339 73° East 491 565 33,000  Level FlightAware ADS-B
Wed 05:38:33 PM 38.3994 -106.7494 73° East 493 567 33,000  Level FlightAware ADS-B
Wed 05:39:04 PM 38.4196 -106.6628 74° East 492 566 33,000  Level FlightAware ADS-B
Wed 05:39:34 PM 38.4382 -106.5827 74° East 491 565 33,000  Level FlightAware ADS-B
Wed 05:40:05 PM 38.4591 -106.4923 74° East 491 565 33,000  Level FlightAware ADS-B
Wed 05:40:36 PM 38.4784 -106.4086 74° East 491 565 33,000  Level FlightAware ADS-B
Wed 05:41:08 PM 38.4987 -106.3201 74° East 484 557 33,000  Level FlightAware ADS-B
Wed 05:41:38 PM 38.5171 -106.2392 74° East 482 555 33,000  Level FlightAware ADS-B
Wed 05:42:10 PM 38.5371 -106.1514 74° East 485 558 33,000  Level FlightAware ADS-B
Wed 05:42:40 PM 38.5557 -106.0694 74° East 488 562 33,000  Level FlightAware ADS-B (EGNT / NCL)
Wed 05:43:10 PM 38.5731 -105.9925 74° East 486 559 33,000  Level FlightAware ADS-B (EGNT / NCL)
Wed 05:43:44 PM 38.5955 -105.8931 74° East 487 560 33,000  Level FlightAware ADS-B (EGNT / NCL)
Wed 05:44:15 PM 38.6144 -105.8089 74° East 483 556 33,000  Level FlightAware ADS-B (EGNT / NCL)
Wed 05:44:54 PM 38.6362 -105.7116 74° East 479 551 33,000  Level FlightAware ADS-B (EGNT / NCL)
Wed 05:45:34 PM 38.6622 -105.5943 74° East 479 551 33,000  Level FlightAware ADS-B (EGNT / NCL)
Wed 05:46:15 PM 38.6872 -105.4816 74° East 477 549 33,000  Level FlightAware ADS-B (EGNT / NCL)
Wed 05:47:07 PM 38.6932 -105.4548 74° East 475 547 33,000  Level FlightAware ADS-B
Wed 05:47:53 PM 38.7447 -105.2195 75° East 478 550 33,000  Level FlightAware ADS-B
Wed 05:48:23 PM 38.7616 -105.1429 74° East 476 548 33,000  Level FlightAware ADS-B
Wed 05:49:02 PM 38.7865 -105.0276 75° East 476 548 33,000  Level FlightAware ADS-B (EGNT / NCL)
Wed 05:49:50 PM 38.8128 -104.9045 77° East 478 550 33,000  Level FlightAware ADS-B (EGNT / NCL)
Wed 05:50:30 PM 38.8296 -104.7872 80° East 482 555 33,000  Level FlightAware ADS-B (EGNT / NCL)
Wed 05:51:10 PM 38.8450 -104.6738 80° East 485 558 33,000  Level FlightAware ADS-B (EGNT / NCL)
Wed 05:51:54 PM 38.8616 -104.5520 80° East 489 563 33,000  Level FlightAware ADS-B
Wed 05:52:29 PM 38.8755 -104.4488 80° East 487 560 33,000  Level FlightAware ADS-B (EGNT / NCL)
Wed 05:53:00 PM 38.8842 -104.3846 80° East 488 562 33,000  Level FlightAware ADS-B (EGNT / NCL)
Wed 05:53:34 PM 38.8994 -104.2730 80° East 489 563 33,000  Level FlightAware ADS-B (EGNT / NCL)
Wed 05:54:04 PM 38.9121 -104.1767 80° East 491 565 33,000  Level FlightAware ADS-B (EGNT / NCL)
Wed 05:54:49 PM 38.9288 -104.0505 80° East 494 568 33,000  Level FlightAware ADS-B (EGNT / NCL)
Wed 05:55:20 PM 38.9382 -103.9783 80° East 494 568 33,000  Level FlightAware ADS-B
Wed 05:55:53 PM 38.9522 -103.8722 81° East 495 570 33,000  Level FlightAware ADS-B
Wed 05:56:25 PM 38.9645 -103.7776 81° East 495 570 33,000  Level FlightAware ADS-B (EGNT / NCL)
Wed 05:57:34 PM 38.9909 -103.5716 81° East 494 568 33,000  Level FlightAware ADS-B (EGNT / NCL)
Wed 05:58:08 PM 39.0029 -103.4771 81° East 493 567 33,000  Level FlightAware ADS-B
Wed 05:58:38 PM 39.0129 -103.3973 81° East 493 567 33,000  Level FlightAware ADS-B (EGNT / NCL)
Wed 05:59:10 PM 39.0233 -103.3140 81° East 491 565 33,000  Level FlightAware ADS-B
Wed 05:59:46 PM 39.0385 -103.1926 81° East 490 564 33,000  Level FlightAware ADS-B (EGNT / NCL)
Wed 06:00:17 PM 39.0478 -103.1173 81° East 492 566 33,000  Level FlightAware ADS-B (EGNT / NCL)
Wed 06:00:47 PM 39.0602 -103.0172 81° East 491 565 33,000  Level FlightAware ADS-B (EGNT / NCL)
Wed 06:01:34 PM 39.0769 -102.8798 81° East 490 564 33,000  Level FlightAware ADS-B (EGNT / NCL)
Wed 06:02:05 PM 39.0852 -102.8105 81° East 488 562 33,000  Level FlightAware ADS-B (EGNT / NCL)
Wed 06:02:55 PM 39.1041 -102.6534 81° East 487 560 33,000  Level FlightAware ADS-B
Wed 06:03:38 PM 39.1190 -102.5282 81° East 485 558 33,000 -81 Level FlightAware ADS-B (EGNT / NCL)
Wed 06:04:09 PM 39.1290 -102.4437 81° East 481 554 32,900 -581 Descending FlightAware ADS-B
Wed 06:04:40 PM 39.1389 -102.3580 82° East 486 559 32,400 -960 Descending FlightAware ADS-B
Wed 06:05:24 PM 39.1534 -102.2337 82° East 499 574 31,700 -1,000 Descending FlightAware ADS-B
Wed 06:05:58 PM 39.1649 -102.1337 82° East 499 574 31,100 -553 Descending FlightAware ADS-B (EGNT / NCL)
Wed 06:06:40 PM 39.1763 -102.0333 82° East 496 571 31,000 -83 Descending FlightAware ADS-B
Wed 06:07:10 PM 39.1891 -101.9191 82° East 496 571 31,000  Level FlightAware ADS-B
Wed 06:07:55 PM 39.2007 -101.8164 82° East 493 567 31,000  Level FlightAware ADS-B
Wed 06:08:40 PM 39.2167 -101.6721 82° East 493 567 31,000  Level FlightAware ADS-B
Wed 06:09:38 PM 39.2368 -101.4885 82° East 489 563 31,000  Level FlightAware ADS-B
Wed 06:10:56 PM 39.2608 -101.2650 82° East 490 564 31,000  Level FlightAware ADS-B
Wed 06:14:18 PM 39.3223 -100.6769 83° East 493 567 31,000  Level FlightAware ADS-B
Wed 06:15:40 PM 39.3462 -100.4392 83° East 489 563 31,000  Level FlightAware ADS-B
Wed 06:16:35 PM 39.3608 -100.2917 83° East 489 563 31,000 51 Level Denver Center
Wed 06:17:37 PM 39.3764 -100.1236 83° East 489 563 31,100 538 Climbing Denver Center
Wed 06:24:01 PM 39.4851 -98.9436 84° East 500 575 35,000 560 Climbing FlightAware ADS-B
Wed 06:24:35 PM 39.4937 -98.8434 84° East 501 577 35,000  Level FlightAware ADS-B
Wed 06:25:16 PM 39.5042 -98.7200 84° East 501 577 35,000  Level FlightAware ADS-B
Wed 06:25:46 PM 39.5116 -98.6309 84° East 498 573 35,000  Level FlightAware ADS-B
Wed 06:26:17 PM 39.5192 -98.5400 84° East 497 572 35,000  Level FlightAware ADS-B
Wed 06:26:49 PM 39.5269 -98.4472 84° East 497 572 35,000  Level FlightAware ADS-B
Wed 06:27:20 PM 39.5345 -98.3541 84° East 496 571 35,000  Level FlightAware ADS-B
Wed 06:27:50 PM 39.5417 -98.2652 84° East 496 571 35,000  Level FlightAware ADS-B
Wed 06:28:21 PM 39.5488 -98.1759 84° East 496 571 35,000  Level FlightAware ADS-B
Wed 06:28:51 PM 39.5558 -98.0868 84° East 495 570 35,000  Level FlightAware ADS-B
Wed 06:29:21 PM 39.5627 -97.9980 84° East 494 568 35,000  Level FlightAware ADS-B
Wed 06:29:52 PM 39.5696 -97.9089 84° East 494 568 35,000  Level FlightAware ADS-B
Wed 06:30:23 PM 39.5768 -97.8156 84° East 495 570 35,000  Level FlightAware ADS-B
Wed 06:30:53 PM 39.5836 -97.7266 84° East 496 571 35,000  Level FlightAware ADS-B
Wed 06:31:36 PM 39.5931 -97.6011 84° East 496 571 35,000  Level FlightAware ADS-B
Wed 06:32:06 PM 39.5998 -97.5111 84° East 497 572 35,000  Level FlightAware ADS-B
Wed 06:32:37 PM 39.6064 -97.4216 85° East 498 573 35,000  Level FlightAware ADS-B
Wed 06:33:07 PM 39.6130 -97.3309 85° East 498 573 35,000  Level FlightAware ADS-B
Wed 06:33:38 PM 39.6195 -97.2396 85° East 497 572 35,000  Level FlightAware ADS-B
Wed 06:34:09 PM 39.6261 -97.1467 85° East 495 570 35,000  Level FlightAware ADS-B
Wed 06:34:40 PM 39.6324 -97.0576 85° East 495 570 35,000  Level FlightAware ADS-B
Wed 06:35:11 PM 39.6386 -96.9657 85° East 497 572 35,000  Level FlightAware ADS-B
Wed 06:35:42 PM 39.6449 -96.8736 85° East 497 572 35,000  Level FlightAware ADS-B
Wed 06:36:14 PM 39.6513 -96.7793 85° East 496 571 35,000  Level FlightAware ADS-B
Wed 06:36:44 PM 39.6575 -96.6888 85° East 497 572 35,000  Level FlightAware ADS-B
Wed 06:37:15 PM 39.6634 -96.5991 85° East 496 571 35,000  Level FlightAware ADS-B
Wed 06:37:46 PM 39.6694 -96.5070 85° East 495 570 35,000  Level FlightAware ADS-B
Wed 06:38:16 PM 39.6752 -96.4177 85° East 496 571 35,000  Level FlightAware ADS-B
Wed 06:38:46 PM 39.6808 -96.3289 85° East 495 570 35,000  Level FlightAware ADS-B
Wed 06:39:16 PM 39.6865 -96.2395 85° East 494 568 35,000  Level FlightAware ADS-B
Wed 06:39:47 PM 39.6921 -96.1483 85° East 493 567 35,000  Level FlightAware ADS-B
Wed 06:40:18 PM 39.6975 -96.0591 86° East 491 565 35,000  Level FlightAware ADS-B
Wed 06:40:52 PM 39.7037 -95.9578 85° East 491 565 35,000  Level FlightAware ADS-B
Wed 06:41:23 PM 39.7091 -95.8691 86° East 488 562 35,000  Level FlightAware ADS-B
Wed 06:41:53 PM 39.7144 -95.7816 86° East 486 559 35,000  Level FlightAware ADS-B
Wed 06:42:23 PM 39.7194 -95.6943 86° East 487 560 35,000  Level FlightAware ADS-B
Wed 06:42:53 PM 39.7244 -95.6069 86° East 487 560 35,000  Level FlightAware ADS-B
Wed 06:43:23 PM 39.7294 -95.5190 86° East 488 562 35,000  Level FlightAware ADS-B
Wed 06:43:53 PM 39.7342 -95.4315 86° East 488 562 35,000  Level FlightAware ADS-B
Wed 06:44:24 PM 39.7391 -95.3420 86° East 489 563 35,000  Level FlightAware ADS-B
Wed 06:44:55 PM 39.7441 -95.2514 86° East 492 566 35,000  Level FlightAware ADS-B
Wed 06:45:25 PM 39.7489 -95.1616 86° East 495 570 35,000  Level FlightAware ADS-B
Wed 06:45:55 PM 39.7537 -95.0718 86° East 495 570 35,000  Level FlightAware ADS-B
Wed 06:46:30 PM 39.7593 -94.9680 86° East 494 568 35,000  Level FlightAware ADS-B
Wed 06:47:01 PM 39.7639 -94.8783 86° East 491 565 35,000  Level FlightAware ADS-B
Wed 06:47:31 PM 39.7684 -94.7899 86° East 489 563 35,000  Level FlightAware ADS-B
Wed 06:48:01 PM 39.7727 -94.7014 86° East 489 563 35,000  Level FlightAware ADS-B
Wed 06:48:33 PM 39.7772 -94.6091 86° East 490 564 35,000  Level FlightAware ADS-B
Wed 06:49:03 PM 39.7815 -94.5200 86° East 490 564 35,000  Level FlightAware ADS-B
Wed 06:49:34 PM 39.7858 -94.4296 86° East 491 565 35,000  Level FlightAware ADS-B
Wed 06:50:05 PM 39.7900 -94.3385 87° East 491 565 35,000  Level FlightAware ADS-B
Wed 06:50:35 PM 39.7941 -94.2492 87° East 491 565 35,000  Level FlightAware ADS-B
Wed 06:51:06 PM 39.7981 -94.1600 87° East 490 564 35,000  Level FlightAware ADS-B
Wed 06:51:36 PM 39.8020 -94.0709 87° East 490 564 35,000  Level FlightAware ADS-B
Wed 06:52:06 PM 39.8059 -93.9826 87° East 490 564 35,000  Level FlightAware ADS-B
Wed 06:52:36 PM 39.8098 -93.8940 87° East 491 565 35,000  Level FlightAware ADS-B
Wed 06:53:07 PM 39.8135 -93.8044 87° East 490 564 35,000  Level FlightAware ADS-B
Wed 06:53:38 PM 39.8172 -93.7150 87° East 490 564 35,000  Level FlightAware ADS-B
Wed 06:54:08 PM 39.8209 -93.6247 87° East 490 564 35,000  Level FlightAware ADS-B
Wed 06:54:39 PM 39.8244 -93.5363 87° East 489 563 35,000  Level FlightAware ADS-B
Wed 06:55:11 PM 39.8281 -93.4422 87° East 491 565 35,000 476 Level FlightAware ADS-B
Wed 06:55:42 PM 39.8315 -93.3509 87° East 491 565 35,500 730 Climbing FlightAware ADS-B
Wed 06:56:25 PM 39.8350 -93.2567 87° East 489 563 35,900 393 Climbing Kansas City Center
Wed 06:59:31 PM 39.8542 -92.6950 88° East 491 565 37,000 213 Climbing Kansas City Center
Wed 07:01:35 PM 39.8647 -92.3458 89° East 492 566 37,000  Level Kansas City Center
Wed 07:03:40 PM 39.8747 -91.9642 90° East 491 565 37,000  Level Kansas City Center
Wed 07:04:42 PM 39.8792 -91.7917 88° East 487 560 37,000  Level Kansas City Center
Wed 07:05:44 PM 39.8844 -91.6172 88° East 487 560 37,000  Level Kansas City Center
Wed 07:06:46 PM 39.8897 -91.4111 88° East 485 558 37,000  Level Kansas City Center
Wed 07:08:50 PM 39.8950 -91.0658 89° East 482 555 37,000  Level Kansas City Center
Wed 07:15:00 PM 39.9098 -89.9624 89° East 491 565 37,000  Level FlightAware ADS-B
Wed 07:15:52 PM 39.9110 -89.8260 89° East 493 567 37,000  Level FlightAware ADS-B
Wed 07:16:32 PM 39.9119 -89.6920 90° East 493 567 37,000  Level FlightAware ADS-B
Wed 07:17:14 PM 39.9124 -89.5684 90° East 492 566 37,000  Level FlightAware ADS-B
Wed 07:17:53 PM 39.9129 -89.4581 90° East 488 562 37,000  Level FlightAware ADS-B
Wed 07:18:36 PM 39.9134 -89.3384 90° East 485 558 37,000  Level FlightAware ADS-B
Wed 07:19:12 PM 39.9137 -89.2244 90° East 485 558 37,000  Level FlightAware ADS-B
Wed 07:19:47 PM 39.9140 -89.1218 90° East 484 557 37,000  Level FlightAware ADS-B
Wed 07:20:17 PM 39.9140 -89.0350 90° East 483 556 37,000  Level FlightAware ADS-B
Wed 07:20:53 PM 39.9140 -88.9353 90° East 482 555 37,000  Level FlightAware ADS-B
Wed 07:21:25 PM 39.9139 -88.8370 90° East 481 554 37,000  Level FlightAware ADS-B
Wed 07:21:57 PM 39.9137 -88.7459 90° East 482 555 37,000  Level FlightAware ADS-B
Wed 07:22:37 PM 39.9135 -88.6287 90° East 483 556 37,000  Level FlightAware ADS-B
Wed 07:23:14 PM 39.9131 -88.5297 90° East 484 557 37,000  Level FlightAware ADS-B
Wed 07:23:45 PM 39.9128 -88.4321 90° East 484 557 37,000  Level FlightAware ADS-B
Wed 07:24:15 PM 39.9125 -88.3606 91° East 484 557 37,000  Level FlightAware ADS-B
Wed 07:24:46 PM 39.9119 -88.2541 91° East 485 558 37,000  Level FlightAware ADS-B
Wed 07:25:23 PM 39.9112 -88.1462 91° East 486 559 37,000  Level FlightAware ADS-B
Wed 07:25:57 PM 39.9106 -88.0610 91° East 486 559 37,000  Level FlightAware ADS-B
Wed 07:27:05 PM 39.9093 -87.8998 91° East 487 560 37,000  Level FlightAware ADS-B
Wed 07:28:46 PM 39.9052 -87.5531 91° East 484 557 37,000  Level FlightAware ADS-B
Wed 07:29:47 PM 39.9047 -87.5072 91° East 484 557 37,000  Level FlightAware ADS-B
Wed 07:30:32 PM 39.9014 -87.2457 91° East 485 558 37,000  Level FlightAware ADS-B
Wed 07:31:08 PM 39.8998 -87.1435 91° East 485 558 37,000  Level FlightAware ADS-B
Wed 07:31:39 PM 39.8982 -87.0504 91° East 487 560 37,000  Level FlightAware ADS-B
Wed 07:32:33 PM 39.8977 -87.0185 91° East 487 560 37,000  Level FlightAware ADS-B
Wed 07:35:17 PM 39.8895 -86.5847 92° East 486 559 37,000  Level FlightAware ADS-B
Wed 07:36:22 PM 39.8815 -86.2236 92° East 483 556 37,000  Level FlightAware ADS-B
Wed 07:37:06 PM 39.8784 -86.0949 92° East 482 555 37,000  Level FlightAware ADS-B
Wed 07:37:36 PM 39.8763 -86.0080 92° East 481 554 37,000  Level FlightAware ADS-B
Wed 07:38:06 PM 39.8742 -85.9245 92° East 480 552 37,000  Level FlightAware ADS-B
Wed 07:38:38 PM 39.8717 -85.8307 92° East 479 551 37,000  Level FlightAware ADS-B
Wed 07:39:20 PM 39.8688 -85.7222 92° East 482 555 37,000  Level FlightAware ADS-B
Wed 07:40:05 PM 39.8647 -85.5792 92° East 485 558 37,000  Level FlightAware ADS-B
Wed 07:42:22 PM 39.8526 -85.1761 92° East 493 567 37,000  Level FlightAware ADS-B
Wed 07:48:49 PM 39.8095 -84.0393 93° East 490 564 37,000  Level FlightAware ADS-B
Wed 07:49:29 PM 39.8041 -83.9135 93° East 490 564 37,000  Level FlightAware ADS-B
Wed 07:49:59 PM 39.8002 -83.8250 93° East 489 563 37,000  Level FlightAware ADS-B
Wed 07:50:41 PM 39.7952 -83.7113 93° East 490 564 37,000  Level FlightAware ADS-B
Wed 07:51:12 PM 39.7906 -83.6114 93° East 490 564 37,000  Level FlightAware ADS-B
Wed 07:51:50 PM 39.7853 -83.4984 94° East 491 565 37,000  Level FlightAware ADS-B
Wed 07:52:30 PM 39.7798 -83.3809 94° East 494 568 37,000  Level FlightAware ADS-B
Wed 07:55:12 PM 39.7560 -82.9041 94° East 492 566 37,000  Level FlightAware ADS-B
Wed 07:55:50 PM 39.7501 -82.7952 94° East 491 565 37,000  Level FlightAware ADS-B
Wed 07:56:26 PM 39.7445 -82.6910 94° East 490 564 37,000  Level FlightAware ADS-B
Wed 07:56:56 PM 39.7396 -82.5992 94° East 490 564 37,000  Level FlightAware ADS-B
Wed 07:57:47 PM 39.7312 -82.4482 94° East 490 564 37,000  Level FlightAware ADS-B
Wed 07:58:26 PM 39.7246 -82.3338 94° East 491 565 37,000  Level FlightAware ADS-B
Wed 07:59:04 PM 39.7183 -82.2238 94° East 493 567 37,000  Level FlightAware ADS-B
Wed 07:59:35 PM 39.7131 -82.1325 94° East 493 567 37,000  Level FlightAware ADS-B
Wed 08:00:15 PM 39.7062 -82.0154 95° East 495 570 37,000  Level FlightAware ADS-B
Wed 08:00:54 PM 39.6994 -81.9050 95° East 496 571 37,000  Level FlightAware ADS-B
Wed 08:01:30 PM 39.6933 -81.8061 95° East 496 571 37,000  Level FlightAware ADS-B
Wed 08:02:00 PM 39.6870 -81.7047 95° East 496 571 37,000  Level FlightAware ADS-B
Wed 08:02:34 PM 39.6807 -81.6044 95° East 496 571 37,000  Level FlightAware ADS-B
Wed 08:03:10 PM 39.6746 -81.5073 95° East 496 571 37,000  Level FlightAware ADS-B
Wed 08:03:56 PM 39.6675 -81.3989 95° East 494 568 37,000  Level Cleveland Center
Wed 08:04:58 PM 39.6528 -81.1861 95° East 495 570 37,000  Level Cleveland Center
Wed 08:06:00 PM 39.6403 -81.0103 95° East 495 570 37,000  Level Cleveland Center
Wed 08:07:02 PM 39.6289 -80.8353 95° East 494 568 37,000  Level Cleveland Center
Wed 08:08:04 PM 39.6164 -80.6619 95° East 491 565 37,000  Level Cleveland Center
Wed 08:09:06 PM 39.6044 -80.4883 95° East 489 563 37,000  Level Cleveland Center
Wed 08:10:08 PM 39.5883 -80.2769 96° East 489 563 37,000 -240 Level Cleveland Center
Wed 08:11:11 PM 39.5756 -80.1031 95° East 490 564 36,500 -1,728 Descending Cleveland Center
Wed 08:12:13 PM 39.5611 -79.9292 96° East 491 565 33,400 -3,097 Descending Cleveland Center
Wed 08:13:15 PM 39.5350 -79.7544 101° East 503 579 30,100 -2,806 Descending Cleveland Center
Wed 08:14:17 PM 39.5053 -79.5858 103° East 493 567 27,600 -1,887 Descending Cleveland Center
Wed 08:15:19 PM 39.4708 -79.3908 103° East 471 542 26,200 -1,790 Descending Cleveland Center
Wed 08:16:21 PM 39.4414 -79.2322 103° East 460 529 23,900 -1,887 Descending Cleveland Center
Wed 08:17:23 PM 39.4161 -79.0828 102° East 436 502 22,300 -1,694 Descending Cleveland Center
Wed 08:18:25 PM 39.3886 -78.9325 103° East 412 474 20,400 -1,875 Descending Cleveland Center
Wed 08:19:31 PM 39.3628 -78.7886 103° East 402 463 18,300 -1,890 Descending Washington Center
Wed 08:20:32 PM 39.3392 -78.6589 103° East 390 449 16,400 -1,770 Descending Washington Center
Wed 08:22:34 PM 39.2933 -78.4039 103° East 367 422 12,900 -1,743 Descending Cleveland Center
Wed 08:23:31 PM 39.2458 -78.2931 119° Southeast 358 412 11,200 -1,077 Descending Washington Center
Wed 08:24:31 PM 39.1958 -78.1947 123° Southeast 343 395 10,800 -741 Descending Washington Center
Wed 08:30:32 PM 38.9515 -77.6401 109° East 281 323 6,000 -776 Descending FlightAware ADS-B (KDAA)
Wed 08:30:42 PM 38.9449 -77.6265 126° Southeast 277 319 6,000  Level FlightAware ADS-B (KDAA)
Wed 08:30:52 PM 38.9352 -77.6160 145° Southeast 265 305 6,000  Level FlightAware ADS-B (KDAA)
Wed 08:30:57 PM 38.9300 -77.6127 153° Southeast 259 298 6,000 -571 Level FlightAware ADS-B (KDAA)
Wed 08:31:13 PM 38.9161 -77.6050 157° South 250 288 5,800 -968 Descending FlightAware ADS-B (KDAA)
Wed 08:31:28 PM 38.8974 -77.5953 157° South 248 285 5,500 -1,034 Descending FlightAware ADS-B (KDAA)
Wed 08:31:42 PM 38.8819 -77.5874 158° South 245 282 5,300 -1,034 Descending FlightAware ADS-B (KDAA)
Wed 08:31:57 PM 38.8675 -77.5803 159° South 244 281 5,000 -1,154 Descending FlightAware ADS-B (KDAA)
Wed 08:32:08 PM 38.8550 -77.5755 166° South 242 278 4,800 -1,440 Descending FlightAware ADS-B (KDAA)
Wed 08:32:22 PM 38.8422 -77.5738 177° South 238 274 4,400 -1,579 Descending FlightAware ADS-B (KDAA)
Wed 08:32:27 PM 38.8332 -77.5742 183° South 236 272 4,300 -1,286 Descending FlightAware ADS-B (KDAA)
Wed 08:32:36 PM 38.8237 -77.5736 172° South 237 273 4,100 -1,600 Descending FlightAware ADS-B (KDAA)
Wed 08:32:57 PM 38.8032 -77.5585 146° Southeast 238 274 3,500 -1,818 Descending FlightAware ADS-B (KDAA)
Wed 08:33:09 PM 38.7970 -77.5447 111° Southeast 234 269 3,100 -1,650 Descending FlightAware ADS-B (KDAA)
Wed 08:33:37 PM 38.7999 -77.5104 62° Northeast 219 252 2,400 -1,455 Descending FlightAware ADS-B (KDAA)
Wed 08:33:42 PM 38.8043 -77.5032 54° Northeast 218 251 2,300 -600 Descending FlightAware ADS-B (KDAA)
Wed 08:33:47 PM 38.8073 -77.4994 46° Northeast 213 245 2,300  Level FlightAware ADS-B (KDAA)
Wed 08:34:02 PM 38.8168 -77.4885 38° Northeast 194 223 2,300  Level FlightAware ADS-B (KDAA)
Wed 08:34:17 PM 38.8257 -77.4801 36° Northeast 184 212 2,300  Level FlightAware ADS-B (KDAA)
Wed 08:34:37 PM 38.8423 -77.4648 35° Northeast 180 207 2,300 -400 Level FlightAware ADS-B (KDAA)
Wed 08:34:47 PM 38.8483 -77.4610 20° North 178 205 2,100 -1,125 Descending FlightAware ADS-B (KDAA)
Wed 08:34:53 PM 38.8534 -77.4604 North 166 191 2,000 -1,091 Descending FlightAware ADS-B (KDAA)
Wed 08:34:58 PM 38.8563 -77.4605 358° North 162 186 1,900 -1,286 Descending FlightAware ADS-B (KDAA)
Wed 08:35:07 PM 38.8643 -77.4608 North 153 176 1,700 -750 Descending FlightAware ADS-B (KDAA)
Wed 08:35:38 PM 38.8840 -77.4605 North 134 154 1,400 -716 Descending FlightAware ADS-B (KDAA)
Wed 08:36:14 PM 38.9072 -77.4603 North 141 162 900 -833 Descending FlightAware ADS-B (KDAA)

Login

Don't have an account? Register now (free) for customized features, flight alerts, and more!